sensor_id;sensor_type;location;lat;lon;timestamp;P1;durP1;ratioP1;P2;durP2;ratioP2
74788;SDS011;63313;48.258;12.518;2023-04-05T00:04:41;9.299999999999999;;;6.709999999999999;;
74788;SDS011;63313;48.258;12.518;2023-04-05T00:10:08;10.8;;;6.609999999999999;;
74788;SDS011;63313;48.258;12.518;2023-04-05T00:15:36;13.629999999999999;;;6.279999999999999;;
74788;SDS011;63313;48.258;12.518;2023-04-05T00:21:03;10.33;;;6.45;;
74788;SDS011;63313;48.258;12.518;2023-04-05T00:26:30;10.059999999999999;;;5.8500000000000005;;
74788;SDS011;63313;48.258;12.518;2023-04-05T00:31:57;11.59;;;6.33;;
74788;SDS011;63313;48.258;12.518;2023-04-05T00:37:24;10.32;;;7.19;;
74788;SDS011;63313;48.258;12.518;2023-04-05T00:42:51;9.96;;;5.369999999999999;;
74788;SDS011;63313;48.258;12.518;2023-04-05T00:48:18;7.8100000000000005;;;4.77;;
74788;SDS011;63313;48.258;12.518;2023-04-05T00:53:45;6.8100000000000005;;;4.359999999999999;;
74788;SDS011;63313;48.258;12.518;2023-04-05T00:59:13;8.26;;;4.999999999999999;;
74788;SDS011;63313;48.258;12.518;2023-04-05T01:04:40;7.95;;;4.05;;
74788;SDS011;63313;48.258;12.518;2023-04-05T01:10:08;7.62;;;4.09;;
74788;SDS011;63313;48.258;12.518;2023-04-05T01:15:36;5.529999999999999;;;3.6399999999999997;;
74788;SDS011;63313;48.258;12.518;2023-04-05T01:21:07;5.0600000000000005;;;3.7399999999999998;;
74788;SDS011;63313;48.258;12.518;2023-04-05T01:26:45;9.290000000000001;;;4.2700000000000005;;
74788;SDS011;63313;48.258;12.518;2023-04-05T01:32:14;5.98;;;3.69;;
74788;SDS011;63313;48.258;12.518;2023-04-05T01:37:45;6.660000000000001;;;3.8299999999999996;;
74788;SDS011;63313;48.258;12.518;2023-04-05T01:43:13;5.970000000000001;;;3.28;;
74788;SDS011;63313;48.258;12.518;2023-04-05T01:48:40;5.89;;;3.2399999999999998;;
74788;SDS011;63313;48.258;12.518;2023-04-05T01:54:07;5.9399999999999995;;;2.95;;
74788;SDS011;63313;48.258;12.518;2023-04-05T01:59:34;4.64;;;2.8200000000000003;;
74788;SDS011;63313;48.258;12.518;2023-04-05T02:05:01;6.16;;;3.4;;
74788;SDS011;63313;48.258;12.518;2023-04-05T02:10:28;6.12;;;3.31;;
74788;SDS011;63313;48.258;12.518;2023-04-05T02:15:55;4.54;;;3.0100000000000002;;
74788;SDS011;63313;48.258;12.518;2023-04-05T02:21:22;5.02;;;3.55;;
74788;SDS011;63313;48.258;12.518;2023-04-05T02:26:49;5.42;;;3.2700000000000005;;
74788;SDS011;63313;48.258;12.518;2023-04-05T02:32:16;5.93;;;3.21;;
74788;SDS011;63313;48.258;12.518;2023-04-05T02:37:43;9.28;;;3.4899999999999998;;
74788;SDS011;63313;48.258;12.518;2023-04-05T02:43:10;8.649999999999999;;;3.71;;
74788;SDS011;63313;48.258;12.518;2023-04-05T02:48:37;9.34;;;3.5200000000000005;;
74788;SDS011;63313;48.258;12.518;2023-04-05T02:54:04;6.709999999999999;;;3.3299999999999996;;
74788;SDS011;63313;48.258;12.518;2023-04-05T02:59:31;7.57;;;3.5500000000000007;;
74788;SDS011;63313;48.258;12.518;2023-04-05T03:04:58;6.07;;;3.21;;
74788;SDS011;63313;48.258;12.518;2023-04-05T03:10:25;8.220000000000002;;;3.22;;
74788;SDS011;63313;48.258;12.518;2023-04-05T03:15:52;5.7700000000000005;;;3.6799999999999997;;
74788;SDS011;63313;48.258;12.518;2023-04-05T03:21:19;15.63;;;4.779999999999999;;
74788;SDS011;63313;48.258;12.518;2023-04-05T03:26:47;9.24;;;3.5700000000000003;;
74788;SDS011;63313;48.258;12.518;2023-04-05T03:32:14;5.9799999999999995;;;3.62;;
74788;SDS011;63313;48.258;12.518;2023-04-05T03:37:41;6.970000000000001;;;3.12;;
74788;SDS011;63313;48.258;12.518;2023-04-05T03:43:08;6.08;;;3.4199999999999995;;
74788;SDS011;63313;48.258;12.518;2023-04-05T03:48:35;6.82;;;3.2199999999999998;;
74788;SDS011;63313;48.258;12.518;2023-04-05T03:54:02;7.06;;;3.6199999999999997;;
74788;SDS011;63313;48.258;12.518;2023-04-05T03:59:29;7.290000000000001;;;3.7399999999999998;;
74788;SDS011;63313;48.258;12.518;2023-04-05T04:04:56;9.260000000000002;;;3.9799999999999995;;
74788;SDS011;63313;48.258;12.518;2023-04-05T04:10:23;7.6800000000000015;;;3.9799999999999995;;
74788;SDS011;63313;48.258;12.518;2023-04-05T04:15:50;7.3100000000000005;;;3.8600000000000003;;
74788;SDS011;63313;48.258;12.518;2023-04-05T04:21:18;6.08;;;3.7700000000000005;;
74788;SDS011;63313;48.258;12.518;2023-04-05T04:26:45;9.75;;;3.54;;
74788;SDS011;63313;48.258;12.518;2023-04-05T04:32:12;7.01;;;3.8099999999999996;;
74788;SDS011;63313;48.258;12.518;2023-04-05T04:37:39;7.45;;;4.26;;
74788;SDS011;63313;48.258;12.518;2023-04-05T04:43:07;7.75;;;3.5100000000000002;;
74788;SDS011;63313;48.258;12.518;2023-04-05T04:48:34;7.889999999999999;;;3.56;;
74788;SDS011;63313;48.258;12.518;2023-04-05T04:54:02;6.75;;;3.5200000000000005;;
74788;SDS011;63313;48.258;12.518;2023-04-05T04:59:29;8.84;;;4.13;;
74788;SDS011;63313;48.258;12.518;2023-04-05T05:04:56;11.150000000000002;;;4.49;;
74788;SDS011;63313;48.258;12.518;2023-04-05T05:10:23;7.18;;;4.069999999999999;;
74788;SDS011;63313;48.258;12.518;2023-04-05T05:15:50;7.9399999999999995;;;4.25;;
74788;SDS011;63313;48.258;12.518;2023-04-05T05:21:17;9.160000000000002;;;4.52;;
74788;SDS011;63313;48.258;12.518;2023-04-05T05:26:44;10.989999999999998;;;4.160000000000001;;
74788;SDS011;63313;48.258;12.518;2023-04-05T05:32:11;8.570000000000002;;;4.39;;
74788;SDS011;63313;48.258;12.518;2023-04-05T05:37:38;7.06;;;4.570000000000001;;
74788;SDS011;63313;48.258;12.518;2023-04-05T05:43:05;8.95;;;3.72;;
74788;SDS011;63313;48.258;12.518;2023-04-05T05:48:32;8.919999999999998;;;4.24;;
74788;SDS011;63313;48.258;12.518;2023-04-05T05:53:59;9.179999999999998;;;4.15;;
74788;SDS011;63313;48.258;12.518;2023-04-05T05:59:26;7.44;;;4.48;;
74788;SDS011;63313;48.258;12.518;2023-04-05T06:04:53;6.87;;;3.9899999999999998;;
74788;SDS011;63313;48.258;12.518;2023-04-05T06:10:20;8.290000000000001;;;4.3100000000000005;;
74788;SDS011;63313;48.258;12.518;2023-04-05T06:15:47;5.579999999999999;;;4.01;;
74788;SDS011;63313;48.258;12.518;2023-04-05T06:21:15;7.65;;;3.9200000000000004;;
74788;SDS011;63313;48.258;12.518;2023-04-05T06:26:42;10.159999999999998;;;3.8900000000000006;;
74788;SDS011;63313;48.258;12.518;2023-04-05T06:32:09;10.129999999999999;;;4.619999999999999;;
74788;SDS011;63313;48.258;12.518;2023-04-05T06:37:36;9.96;;;4.77;;
74788;SDS011;63313;48.258;12.518;2023-04-05T06:43:03;8.09;;;3.8899999999999997;;
74788;SDS011;63313;48.258;12.518;2023-04-05T06:48:30;9.42;;;4.460000000000001;;
74788;SDS011;63313;48.258;12.518;2023-04-05T06:53:59;26.490000000000002;;;5.090000000000001;;
74788;SDS011;63313;48.258;12.518;2023-04-05T06:59:26;10.629999999999999;;;4.81;;
74788;SDS011;63313;48.258;12.518;2023-04-05T07:04:53;8.489999999999998;;;4.71;;
74788;SDS011;63313;48.258;12.518;2023-04-05T07:10:20;10.290000000000001;;;5.06;;
74788;SDS011;63313;48.258;12.518;2023-04-05T07:15:47;12.650000000000002;;;4.779999999999999;;
74788;SDS011;63313;48.258;12.518;2023-04-05T07:21:14;7.040000000000001;;;3.94;;
74788;SDS011;63313;48.258;12.518;2023-04-05T07:26:42;9.489999999999998;;;4.27;;
74788;SDS011;63313;48.258;12.518;2023-04-05T07:32:09;8.040000000000001;;;3.84;;
74788;SDS011;63313;48.258;12.518;2023-04-05T07:37:36;9.75;;;4.279999999999999;;
74788;SDS011;63313;48.258;12.518;2023-04-05T07:43:03;8.71;;;4.72;;
74788;SDS011;63313;48.258;12.518;2023-04-05T07:48:30;8.07;;;4.05;;
74788;SDS011;63313;48.258;12.518;2023-04-05T07:53:57;7.67;;;4.43;;
74788;SDS011;63313;48.258;12.518;2023-04-05T07:59:24;6.19;;;3.8299999999999996;;
74788;SDS011;63313;48.258;12.518;2023-04-05T08:04:51;7.31;;;4.0;;
74788;SDS011;63313;48.258;12.518;2023-04-05T08:10:18;6.57;;;3.5900000000000007;;
74788;SDS011;63313;48.258;12.518;2023-04-05T08:15:45;10.78;;;4.05;;
74788;SDS011;63313;48.258;12.518;2023-04-05T08:21:12;7.859999999999998;;;3.8899999999999997;;
74788;SDS011;63313;48.258;12.518;2023-04-05T08:26:39;8.990000000000002;;;3.879999999999999;;
74788;SDS011;63313;48.258;12.518;2023-04-05T08:32:06;6.0600000000000005;;;3.5100000000000002;;
74788;SDS011;63313;48.258;12.518;2023-04-05T08:37:33;8.08;;;3.8899999999999997;;
74788;SDS011;63313;48.258;12.518;2023-04-05T08:43:02;9.16;;;3.9;;
74788;SDS011;63313;48.258;12.518;2023-04-05T08:48:33;5.209999999999999;;;3.5900000000000007;;
74788;SDS011;63313;48.258;12.518;2023-04-05T08:54:01;9.47;;;4.03;;
74788;SDS011;63313;48.258;12.518;2023-04-05T08:59:28;4.7700000000000005;;;3.5200000000000005;;
74788;SDS011;63313;48.258;12.518;2023-04-05T09:04:55;7.970000000000001;;;4.41;;
74788;SDS011;63313;48.258;12.518;2023-04-05T09:10:22;6.039999999999999;;;3.6699999999999995;;
74788;SDS011;63313;48.258;12.518;2023-04-05T09:15:49;7.35;;;3.9;;
74788;SDS011;63313;48.258;12.518;2023-04-05T09:21:16;6.56;;;3.6599999999999993;;
74788;SDS011;63313;48.258;12.518;2023-04-05T09:26:43;5.9;;;3.9299999999999997;;
74788;SDS011;63313;48.258;12.518;2023-04-05T09:32:11;4.699999999999999;;;3.2199999999999998;;
74788;SDS011;63313;48.258;12.518;2023-04-05T09:37:46;7.57;;;3.6700000000000004;;
74788;SDS011;63313;48.258;12.518;2023-04-05T09:43:34;7.26;;;3.75;;
74788;SDS011;63313;48.258;12.518;2023-04-05T09:49:02;5.46;;;3.3299999999999996;;
74788;SDS011;63313;48.258;12.518;2023-04-05T09:54:29;8.059999999999999;;;4.12;;
74788;SDS011;63313;48.258;12.518;2023-04-05T10:00:16;6.909999999999999;;;3.8900000000000006;;
74788;SDS011;63313;48.258;12.518;2023-04-05T10:05:43;5.7;;;3.4899999999999998;;
74788;SDS011;63313;48.258;12.518;2023-04-05T10:11:10;6.3100000000000005;;;3.6000000000000005;;
74788;SDS011;63313;48.258;12.518;2023-04-05T10:16:41;5.5600000000000005;;;3.1100000000000003;;
74788;SDS011;63313;48.258;12.518;2023-04-05T10:22:12;6.130000000000001;;;3.53;;
74788;SDS011;63313;48.258;12.518;2023-04-05T10:27:43;6.43;;;3.75;;
74788;SDS011;63313;48.258;12.518;2023-04-05T10:33:15;6.2299999999999995;;;3.4099999999999993;;
74788;SDS011;63313;48.258;12.518;2023-04-05T10:38:52;6.11;;;3.4;;
74788;SDS011;63313;48.258;12.518;2023-04-05T10:44:23;6.55;;;3.72;;
74788;SDS011;63313;48.258;12.518;2023-04-05T10:49:50;5.88;;;3.15;;
74788;SDS011;63313;48.258;12.518;2023-04-05T10:55:19;5.88;;;3.3099999999999996;;
74788;SDS011;63313;48.258;12.518;2023-04-05T11:00:46;6.08;;;3.2300000000000004;;
74788;SDS011;63313;48.258;12.518;2023-04-05T11:06:23;6.25;;;3.3;;
74788;SDS011;63313;48.258;12.518;2023-04-05T11:11:50;5.31;;;3.45;;
74788;SDS011;63313;48.258;12.518;2023-04-05T11:17:26;7.460000000000001;;;3.56;;
74788;SDS011;63313;48.258;12.518;2023-04-05T11:22:54;6.4399999999999995;;;3.25;;
74788;SDS011;63313;48.258;12.518;2023-04-05T11:28:22;6.18;;;3.3099999999999996;;
74788;SDS011;63313;48.258;12.518;2023-04-05T11:33:53;5.5;;;3.55;;
74788;SDS011;63313;48.258;12.518;2023-04-05T11:39:22;4.2;;;3.31;;
74788;SDS011;63313;48.258;12.518;2023-04-05T11:44:49;6.87;;;3.7700000000000005;;
74788;SDS011;63313;48.258;12.518;2023-04-05T11:50:19;6.889999999999999;;;3.44;;
74788;SDS011;63313;48.258;12.518;2023-04-05T11:55:48;7.109999999999999;;;3.29;;
74788;SDS011;63313;48.258;12.518;2023-04-05T12:01:16;5.43;;;3.41;;
74788;SDS011;63313;48.258;12.518;2023-04-05T12:06:43;5.83;;;3.28;;
74788;SDS011;63313;48.258;12.518;2023-04-05T12:12:15;4.9;;;3.8199999999999994;;
74788;SDS011;63313;48.258;12.518;2023-04-05T12:17:43;4.3999999999999995;;;3.25;;
74788;SDS011;63313;48.258;12.518;2023-04-05T12:23:10;3.8800000000000003;;;3.15;;
74788;SDS011;63313;48.258;12.518;2023-04-05T12:28:53;4.88;;;3.69;;
74788;SDS011;63313;48.258;12.518;2023-04-05T12:34:22;7.33;;;3.1999999999999997;;
74788;SDS011;63313;48.258;12.518;2023-04-05T12:39:49;5.11;;;3.3699999999999997;;
74788;SDS011;63313;48.258;12.518;2023-04-05T12:45:16;4.380000000000001;;;3.1799999999999997;;
74788;SDS011;63313;48.258;12.518;2023-04-05T12:50:44;5.2;;;3.6199999999999997;;
74788;SDS011;63313;48.258;12.518;2023-04-05T12:56:11;6.029999999999999;;;3.7099999999999995;;
74788;SDS011;63313;48.258;12.518;2023-04-05T13:01:38;7.45;;;3.4299999999999997;;
74788;SDS011;63313;48.258;12.518;2023-04-05T13:07:05;5.35;;;3.3;;
74788;SDS011;63313;48.258;12.518;2023-04-05T13:12:32;4.67;;;3.05;;
74788;SDS011;63313;48.258;12.518;2023-04-05T13:17:59;10.01;;;3.5200000000000005;;
74788;SDS011;63313;48.258;12.518;2023-04-05T13:23:26;8.270000000000001;;;3.97;;
74788;SDS011;63313;48.258;12.518;2023-04-05T13:28:54;4.37;;;3.2199999999999998;;
74788;SDS011;63313;48.258;12.518;2023-04-05T13:34:21;3.69;;;3.0200000000000005;;
74788;SDS011;63313;48.258;12.518;2023-04-05T13:39:48;6.57;;;3.14;;
74788;SDS011;63313;48.258;12.518;2023-04-05T13:45:15;4.079999999999999;;;3.34;;
74788;SDS011;63313;48.258;12.518;2023-04-05T13:50:42;5.749999999999999;;;3.1700000000000004;;
74788;SDS011;63313;48.258;12.518;2023-04-05T13:56:09;4.59;;;3.4199999999999995;;
74788;SDS011;63313;48.258;12.518;2023-04-05T14:01:36;5.34;;;3.35;;
74788;SDS011;63313;48.258;12.518;2023-04-05T14:07:03;6.390000000000001;;;3.5300000000000002;;
74788;SDS011;63313;48.258;12.518;2023-04-05T14:12:31;4.01;;;2.8800000000000003;;
74788;SDS011;63313;48.258;12.518;2023-04-05T14:17:59;5.14;;;2.86;;
74788;SDS011;63313;48.258;12.518;2023-04-05T14:23:26;3.9899999999999998;;;3.06;;
74788;SDS011;63313;48.258;12.518;2023-04-05T14:28:53;5.49;;;3.1399999999999997;;
74788;SDS011;63313;48.258;12.518;2023-04-05T14:34:20;3.4;;;2.79;;
74788;SDS011;63313;48.258;12.518;2023-04-05T14:39:47;4.89;;;3.16;;
74788;SDS011;63313;48.258;12.518;2023-04-05T14:45:14;4.38;;;3.25;;
74788;SDS011;63313;48.258;12.518;2023-04-05T14:50:42;5.37;;;2.9400000000000004;;
74788;SDS011;63313;48.258;12.518;2023-04-05T14:56:09;3.7599999999999993;;;3.28;;
74788;SDS011;63313;48.258;12.518;2023-04-05T15:01:36;3.1;;;2.6399999999999997;;
74788;SDS011;63313;48.258;12.518;2023-04-05T15:07:03;6.17;;;3.29;;
74788;SDS011;63313;48.258;12.518;2023-04-05T15:12:30;5.25;;;3.21;;
74788;SDS011;63313;48.258;12.518;2023-04-05T15:17:57;3.9500000000000006;;;2.8999999999999995;;
74788;SDS011;63313;48.258;12.518;2023-04-05T15:23:24;4.46;;;3.5;;
74788;SDS011;63313;48.258;12.518;2023-04-05T15:28:51;3.8199999999999994;;;2.84;;
74788;SDS011;63313;48.258;12.518;2023-04-05T15:34:18;4.22;;;3.2399999999999998;;
74788;SDS011;63313;48.258;12.518;2023-04-05T15:39:45;6.58;;;3.29;;
74788;SDS011;63313;48.258;12.518;2023-04-05T15:45:12;4.180000000000001;;;2.8000000000000003;;
74788;SDS011;63313;48.258;12.518;2023-04-05T15:50:40;5.07;;;3.2399999999999998;;
74788;SDS011;63313;48.258;12.518;2023-04-05T15:56:07;7.2700000000000005;;;3.28;;
74788;SDS011;63313;48.258;12.518;2023-04-05T16:01:35;7.5;;;2.9;;
74788;SDS011;63313;48.258;12.518;2023-04-05T16:07:02;3.3699999999999997;;;2.92;;
74788;SDS011;63313;48.258;12.518;2023-04-05T16:12:29;3.85;;;2.8299999999999996;;
74788;SDS011;63313;48.258;12.518;2023-04-05T16:17:56;3.96;;;2.9299999999999997;;
74788;SDS011;63313;48.258;12.518;2023-04-05T16:23:23;4.680000000000001;;;3.3899999999999997;;
74788;SDS011;63313;48.258;12.518;2023-04-05T16:28:50;3.65;;;2.82;;
74788;SDS011;63313;48.258;12.518;2023-04-05T16:34:18;6.9;;;3.18;;
74788;SDS011;63313;48.258;12.518;2023-04-05T16:39:45;3.749999999999999;;;2.8099999999999996;;
74788;SDS011;63313;48.258;12.518;2023-04-05T16:45:12;3.06;;;2.5900000000000003;;
74788;SDS011;63313;48.258;12.518;2023-04-05T16:50:39;3.09;;;2.6500000000000004;;
74788;SDS011;63313;48.258;12.518;2023-04-05T16:56:06;4.41;;;2.96;;
74788;SDS011;63313;48.258;12.518;2023-04-05T17:01:33;7.58;;;3.09;;
74788;SDS011;63313;48.258;12.518;2023-04-05T17:07:00;3.56;;;2.54;;
74788;SDS011;63313;48.258;12.518;2023-04-05T17:12:27;5.029999999999999;;;3.7;;
74788;SDS011;63313;48.258;12.518;2023-04-05T17:17:54;6.55;;;2.53;;
74788;SDS011;63313;48.258;12.518;2023-04-05T17:23:22;4.12;;;2.5000000000000004;;
74788;SDS011;63313;48.258;12.518;2023-04-05T17:28:49;6.959999999999999;;;3.3300000000000005;;
74788;SDS011;63313;48.258;12.518;2023-04-05T17:34:16;4.32;;;3.19;;
74788;SDS011;63313;48.258;12.518;2023-04-05T17:39:43;4.24;;;2.96;;
74788;SDS011;63313;48.258;12.518;2023-04-05T17:45:10;5.32;;;2.87;;
74788;SDS011;63313;48.258;12.518;2023-04-05T17:50:37;4.15;;;3.01;;
74788;SDS011;63313;48.258;12.518;2023-04-05T17:56:05;4.03;;;3.4099999999999993;;
74788;SDS011;63313;48.258;12.518;2023-04-05T18:01:32;7.010000000000001;;;3.29;;
74788;SDS011;63313;48.258;12.518;2023-04-05T18:06:59;6.04;;;3.13;;
74788;SDS011;63313;48.258;12.518;2023-04-05T18:12:26;4.619999999999999;;;2.74;;
74788;SDS011;63313;48.258;12.518;2023-04-05T18:17:53;9.73;;;5.19;;
74788;SDS011;63313;48.258;12.518;2023-04-05T18:23:20;9.66;;;4.220000000000001;;
74788;SDS011;63313;48.258;12.518;2023-04-05T18:28:48;6.17;;;2.9099999999999997;;
74788;SDS011;63313;48.258;12.518;2023-04-05T18:34:15;6.610000000000001;;;2.69;;
74788;SDS011;63313;48.258;12.518;2023-04-05T18:39:42;5.77;;;2.7;;
74788;SDS011;63313;48.258;12.518;2023-04-05T18:45:09;4.67;;;2.7700000000000005;;
74788;SDS011;63313;48.258;12.518;2023-04-05T18:50:36;6.160000000000001;;;3.1800000000000006;;
74788;SDS011;63313;48.258;12.518;2023-04-05T18:56:04;4.0200000000000005;;;3.05;;
74788;SDS011;63313;48.258;12.518;2023-04-05T19:01:31;10.07;;;4.44;;
74788;SDS011;63313;48.258;12.518;2023-04-05T19:06:58;22.759999999999998;;;9.43;;
74788;SDS011;63313;48.258;12.518;2023-04-05T19:12:25;23.07;;;11.41;;
74788;SDS011;63313;48.258;12.518;2023-04-05T19:17:52;25.02;;;11.849999999999998;;
74788;SDS011;63313;48.258;12.518;2023-04-05T19:23:20;22.11;;;10.61;;
74788;SDS011;63313;48.258;12.518;2023-04-05T19:28:47;21.19;;;9.700000000000001;;
74788;SDS011;63313;48.258;12.518;2023-04-05T19:34:14;21.090000000000003;;;9.77;;
74788;SDS011;63313;48.258;12.518;2023-04-05T19:39:41;19.259999999999998;;;7.710000000000001;;
74788;SDS011;63313;48.258;12.518;2023-04-05T19:45:09;10.84;;;5.3;;
74788;SDS011;63313;48.258;12.518;2023-04-05T19:50:44;8.92;;;4.92;;
74788;SDS011;63313;48.258;12.518;2023-04-05T19:56:11;11.379999999999999;;;5.16;;
74788;SDS011;63313;48.258;12.518;2023-04-05T20:01:40;17.4;;;5.58;;
74788;SDS011;63313;48.258;12.518;2023-04-05T20:07:07;6.5200000000000005;;;3.7600000000000002;;
74788;SDS011;63313;48.258;12.518;2023-04-05T20:12:34;6.1;;;3.75;;
74788;SDS011;63313;48.258;12.518;2023-04-05T20:18:01;10.070000000000002;;;4.71;;
74788;SDS011;63313;48.258;12.518;2023-04-05T20:23:28;6.18;;;3.8900000000000006;;
74788;SDS011;63313;48.258;12.518;2023-04-05T20:28:56;6.88;;;4.16;;
74788;SDS011;63313;48.258;12.518;2023-04-05T20:34:25;9.260000000000002;;;3.6399999999999997;;
74788;SDS011;63313;48.258;12.518;2023-04-05T20:39:52;10.2;;;3.8999999999999995;;
74788;SDS011;63313;48.258;12.518;2023-04-05T20:45:20;9.68;;;4.789999999999999;;
74788;SDS011;63313;48.258;12.518;2023-04-05T20:50:47;5.9799999999999995;;;3.97;;
74788;SDS011;63313;48.258;12.518;2023-04-05T20:56:14;11.67;;;4.3999999999999995;;
74788;SDS011;63313;48.258;12.518;2023-04-05T21:01:41;9.650000000000002;;;4.17;;
74788;SDS011;63313;48.258;12.518;2023-04-05T21:07:08;10.92;;;4.81;;
74788;SDS011;63313;48.258;12.518;2023-04-05T21:12:35;10.16;;;4.680000000000001;;
74788;SDS011;63313;48.258;12.518;2023-04-05T21:18:02;9.62;;;4.84;;
74788;SDS011;63313;48.258;12.518;2023-04-05T21:23:29;8.22;;;3.96;;
74788;SDS011;63313;48.258;12.518;2023-04-05T21:28:56;12.429999999999998;;;4.48;;
74788;SDS011;63313;48.258;12.518;2023-04-05T21:34:23;9.33;;;4.220000000000001;;
74788;SDS011;63313;48.258;12.518;2023-04-05T21:39:50;5.8;;;3.8299999999999996;;
74788;SDS011;63313;48.258;12.518;2023-04-05T21:45:18;8.72;;;3.96;;
74788;SDS011;63313;48.258;12.518;2023-04-05T21:50:45;6.890000000000001;;;3.8800000000000003;;
74788;SDS011;63313;48.258;12.518;2023-04-05T21:56:12;11.860000000000001;;;4.79;;
74788;SDS011;63313;48.258;12.518;2023-04-05T22:01:39;7.82;;;4.91;;
74788;SDS011;63313;48.258;12.518;2023-04-05T22:07:06;7.62;;;4.14;;
74788;SDS011;63313;48.258;12.518;2023-04-05T22:12:33;7.089999999999999;;;3.9800000000000004;;
74788;SDS011;63313;48.258;12.518;2023-04-05T22:18:00;6.659999999999999;;;4.13;;
74788;SDS011;63313;48.258;12.518;2023-04-05T22:23:27;8.760000000000002;;;5.24;;
74788;SDS011;63313;48.258;12.518;2023-04-05T22:28:54;12.26;;;4.779999999999999;;
74788;SDS011;63313;48.258;12.518;2023-04-05T22:34:21;5.84;;;4.17;;
74788;SDS011;63313;48.258;12.518;2023-04-05T22:39:48;8.41;;;4.700000000000001;;
74788;SDS011;63313;48.258;12.518;2023-04-05T22:45:16;7.840000000000001;;;4.63;;
74788;SDS011;63313;48.258;12.518;2023-04-05T22:50:43;12.719999999999999;;;5.069999999999999;;
74788;SDS011;63313;48.258;12.518;2023-04-05T22:56:10;6.780000000000001;;;4.220000000000001;;
74788;SDS011;63313;48.258;12.518;2023-04-05T23:01:37;5.720000000000001;;;4.27;;
74788;SDS011;63313;48.258;12.518;2023-04-05T23:07:04;6.45;;;4.1899999999999995;;
74788;SDS011;63313;48.258;12.518;2023-04-05T23:12:31;5.9799999999999995;;;3.84;;
74788;SDS011;63313;48.258;12.518;2023-04-05T23:17:58;10.01;;;4.7700000000000005;;
74788;SDS011;63313;48.258;12.518;2023-04-05T23:23:25;8.879999999999999;;;4.090000000000001;;
74788;SDS011;63313;48.258;12.518;2023-04-05T23:28:52;9.15;;;4.16;;
74788;SDS011;63313;48.258;12.518;2023-04-05T23:34:19;14.010000000000002;;;4.569999999999999;;
74788;SDS011;63313;48.258;12.518;2023-04-05T23:39:46;8.23;;;4.17;;
74788;SDS011;63313;48.258;12.518;2023-04-05T23:45:13;8.56;;;4.640000000000001;;
74788;SDS011;63313;48.258;12.518;2023-04-05T23:50:41;5.9399999999999995;;;4.08;;
74788;SDS011;63313;48.258;12.518;2023-04-05T23:56:08;13.95;;;4.67;;
